sensor_id;sensor_type;location;lat;lon;timestamp;pressure;altitude;pressure_sealevel;temperature;humidity
81816;BME280;71249;52.084;5.304;2023-07-08T00:00:16;101780.0;;;19.02;60.58
81816;BME280;71249;52.084;5.304;2023-07-08T00:01:54;101766.0;;;19.05;60.13
81816;BME280;71249;52.084;5.304;2023-07-08T00:05:08;101767.0;;;19.12;59.76
81816;BME280;71249;52.084;5.304;2023-07-08T00:06:44;101760.0;;;19.02;60.37
81816;BME280;71249;52.084;5.304;2023-07-08T00:08:20;101757.0;;;19.07;60.05
81816;BME280;71249;52.084;5.304;2023-07-08T00:09:57;101753.0;;;19.07;59.59
81816;BME280;71249;52.084;5.304;2023-07-08T00:13:10;101749.0;;;19.09;59.73
81816;BME280;71249;52.084;5.304;2023-07-08T00:14:46;101745.0;;;19.12;59.65
81816;BME280;71249;52.084;5.304;2023-07-08T00:16:23;101743.0;;;19.12;58.9
81816;BME280;71249;52.084;5.304;2023-07-08T00:19:37;101741.0;;;19.28;58.35
81816;BME280;71249;52.084;5.304;2023-07-08T00:21:16;101736.0;;;19.18;58.72
81816;BME280;71249;52.084;5.304;2023-07-08T00:22:52;101741.0;;;19.2;58.13
81816;BME280;71249;52.084;5.304;2023-07-08T00:26:10;101747.0;;;19.25;58.37
81816;BME280;71249;52.084;5.304;2023-07-08T00:27:47;101746.0;;;19.28;57.57
81816;BME280;71249;52.084;5.304;2023-07-08T00:29:24;101742.0;;;19.16;57.83
81816;BME280;71249;52.084;5.304;2023-07-08T00:31:00;101740.0;;;19.38;57.25
81816;BME280;71249;52.084;5.304;2023-07-08T00:34:12;101737.0;;;19.45;57.3
81816;BME280;71249;52.084;5.304;2023-07-08T00:35:48;101735.0;;;19.46;56.71
81816;BME280;71249;52.084;5.304;2023-07-08T00:37:24;101732.0;;;19.52;56.9
81816;BME280;71249;52.084;5.304;2023-07-08T00:40:37;101732.0;;;19.47;56.91
81816;BME280;71249;52.084;5.304;2023-07-08T00:42:16;101731.0;;;19.43;56.92
81816;BME280;71249;52.084;5.304;2023-07-08T00:44:01;101726.0;;;19.41;57.15
81816;BME280;71249;52.084;5.304;2023-07-08T00:45:41;101726.0;;;19.47;56.35
81816;BME280;71249;52.084;5.304;2023-07-08T00:49:07;101725.0;;;19.52;56.12
81816;BME280;71249;52.084;5.304;2023-07-08T00:50:47;101727.0;;;19.56;56.48
81816;BME280;71249;52.084;5.304;2023-07-08T00:52:26;101722.0;;;19.52;57.14
81816;BME280;71249;52.084;5.304;2023-07-08T00:54:03;101724.0;;;19.53;56.25
81816;BME280;71249;52.084;5.304;2023-07-08T00:57:15;101722.0;;;19.61;56.17
81816;BME280;71249;52.084;5.304;2023-07-08T00:58:56;101720.0;;;19.63;56.08
81816;BME280;71249;52.084;5.304;2023-07-08T01:00:39;101722.0;;;19.53;55.96
81816;BME280;71249;52.084;5.304;2023-07-08T01:02:18;101719.0;;;19.5;56.88
81816;BME280;71249;52.084;5.304;2023-07-08T01:05:39;101716.0;;;19.56;56.2
81816;BME280;71249;52.084;5.304;2023-07-08T01:07:18;101717.0;;;19.63;56.11
81816;BME280;71249;52.084;5.304;2023-07-08T01:08:55;101718.0;;;19.57;56.03
81816;BME280;71249;52.084;5.304;2023-07-08T01:10:33;101711.0;;;19.61;56.03
81816;BME280;71249;52.084;5.304;2023-07-08T01:13:59;101714.0;;;19.64;55.78
81816;BME280;71249;52.084;5.304;2023-07-08T01:15:41;101712.0;;;19.61;56.64
81816;BME280;71249;52.084;5.304;2023-07-08T01:17:18;101709.0;;;19.63;55.98
81816;BME280;71249;52.084;5.304;2023-07-08T01:18:55;101710.0;;;19.57;56.08
81816;BME280;71249;52.084;5.304;2023-07-08T01:22:08;101706.0;;;19.48;56.45
81816;BME280;71249;52.084;5.304;2023-07-08T01:23:45;101707.0;;;19.56;56.04
81816;BME280;71249;52.084;5.304;2023-07-08T01:25:21;101705.0;;;19.52;56.14
81816;BME280;71249;52.084;5.304;2023-07-08T01:28:35;101703.0;;;19.47;56.14
81816;BME280;71249;52.084;5.304;2023-07-08T01:30:12;101702.0;;;19.41;56.88
81816;BME280;71249;52.084;5.304;2023-07-08T01:31:50;101706.0;;;19.38;56.86
81816;BME280;71249;52.084;5.304;2023-07-08T01:35:03;101705.0;;;19.5;56.11
81816;BME280;71249;52.084;5.304;2023-07-08T01:36:43;101705.0;;;19.5;56.26
81816;BME280;71249;52.084;5.304;2023-07-08T01:38:24;101699.0;;;19.56;55.91
81816;BME280;71249;52.084;5.304;2023-07-08T01:40:37;101694.0;;;19.5;55.9
81816;BME280;71249;52.084;5.304;2023-07-08T01:42:14;101692.0;;;19.57;56.58
81816;BME280;71249;52.084;5.304;2023-07-08T01:45:27;101696.0;;;19.56;56.09
81816;BME280;71249;52.084;5.304;2023-07-08T01:47:10;101690.0;;;19.47;56.14
81816;BME280;71249;52.084;5.304;2023-07-08T01:50:29;101691.0;;;19.48;56.44
81816;BME280;71249;52.084;5.304;2023-07-08T01:53:44;101695.0;;;19.47;57.13
81816;BME280;71249;52.084;5.304;2023-07-08T01:55:22;101697.0;;;19.39;57.01
81816;BME280;71249;52.084;5.304;2023-07-08T01:56:59;101696.0;;;19.36;57.15
81816;BME280;71249;52.084;5.304;2023-07-08T02:00:12;101689.0;;;19.43;56.94
81816;BME280;71249;52.084;5.304;2023-07-08T02:01:49;101686.0;;;19.43;56.78
81816;BME280;71249;52.084;5.304;2023-07-08T02:03:26;101684.0;;;19.43;56.84
81816;BME280;71249;52.084;5.304;2023-07-08T02:05:04;101682.0;;;19.32;57.04
81816;BME280;71249;52.084;5.304;2023-07-08T02:08:17;101681.0;;;19.38;57.36
81816;BME280;71249;52.084;5.304;2023-07-08T02:09:54;101680.0;;;19.28;57.54
81816;BME280;71249;52.084;5.304;2023-07-08T02:11:30;101677.0;;;19.18;57.88
81816;BME280;71249;52.084;5.304;2023-07-08T02:14:42;101675.0;;;19.14;58.61
81816;BME280;71249;52.084;5.304;2023-07-08T02:16:18;101670.0;;;19.11;59.21
81816;BME280;71249;52.084;5.304;2023-07-08T02:17:54;101664.0;;;19.11;58.46
81816;BME280;71249;52.084;5.304;2023-07-08T02:21:07;101664.0;;;19.0;59.3
81816;BME280;71249;52.084;5.304;2023-07-08T02:22:43;101662.0;;;19.03;58.55
81816;BME280;71249;52.084;5.304;2023-07-08T02:24:19;101663.0;;;19.11;58.35
81816;BME280;71249;52.084;5.304;2023-07-08T02:25:55;101664.0;;;19.13;58.14
81816;BME280;71249;52.084;5.304;2023-07-08T02:29:07;101661.0;;;19.11;58.21
81816;BME280;71249;52.084;5.304;2023-07-08T02:30:44;101663.0;;;19.03;58.84
81816;BME280;71249;52.084;5.304;2023-07-08T02:32:19;101655.0;;;19.13;58.16
81816;BME280;71249;52.084;5.304;2023-07-08T02:35:32;101656.0;;;19.09;58.54
81816;BME280;71249;52.084;5.304;2023-07-08T02:37:08;101655.0;;;19.07;58.05
81816;BME280;71249;52.084;5.304;2023-07-08T02:38:44;101648.0;;;19.03;58.85
81816;BME280;71249;52.084;5.304;2023-07-08T02:41:57;101650.0;;;19.04;59.14
81816;BME280;71249;52.084;5.304;2023-07-08T02:43:34;101643.0;;;19.02;58.59
81816;BME280;71249;52.084;5.304;2023-07-08T02:45:10;101645.0;;;19.06;58.9
81816;BME280;71249;52.084;5.304;2023-07-08T02:46:49;101644.0;;;19.12;58.36
81816;BME280;71249;52.084;5.304;2023-07-08T02:50:01;101641.0;;;19.07;58.39
81816;BME280;71249;52.084;5.304;2023-07-08T02:51:37;101642.0;;;19.05;58.41
81816;BME280;71249;52.084;5.304;2023-07-08T02:53:13;101642.0;;;19.05;58.68
81816;BME280;71249;52.084;5.304;2023-07-08T02:56:26;101642.0;;;18.95;59.32
81816;BME280;71249;52.084;5.304;2023-07-08T02:58:02;101638.0;;;18.91;59.54
81816;BME280;71249;52.084;5.304;2023-07-08T02:59:38;101641.0;;;18.79;60.31
81816;BME280;71249;52.084;5.304;2023-07-08T03:02:51;101639.0;;;18.93;59.02
81816;BME280;71249;52.084;5.304;2023-07-08T03:04:27;101638.0;;;18.95;58.68
81816;BME280;71249;52.084;5.304;2023-07-08T03:06:04;101642.0;;;18.96;58.91
81816;BME280;71249;52.084;5.304;2023-07-08T03:07:40;101637.0;;;18.95;58.73
81816;BME280;71249;52.084;5.304;2023-07-08T03:10:56;101641.0;;;18.84;60.0
81816;BME280;71249;52.084;5.304;2023-07-08T03:12:33;101639.0;;;18.89;59.11
81816;BME280;71249;52.084;5.304;2023-07-08T03:14:09;101642.0;;;18.82;60.19
81816;BME280;71249;52.084;5.304;2023-07-08T03:17:21;101644.0;;;18.66;60.3
81816;BME280;71249;52.084;5.304;2023-07-08T03:18:57;101640.0;;;18.63;60.27
81816;BME280;71249;52.084;5.304;2023-07-08T03:20:34;101640.0;;;18.54;61.08
81816;BME280;71249;52.084;5.304;2023-07-08T03:23:48;101641.0;;;18.53;60.36
81816;BME280;71249;52.084;5.304;2023-07-08T03:25:24;101640.0;;;18.46;60.88
81816;BME280;71249;52.084;5.304;2023-07-08T03:27:00;101641.0;;;18.46;61.19
81816;BME280;71249;52.084;5.304;2023-07-08T03:28:36;101642.0;;;18.5;60.75
81816;BME280;71249;52.084;5.304;2023-07-08T03:31:49;101641.0;;;18.53;60.28
81816;BME280;71249;52.084;5.304;2023-07-08T03:33:25;101647.0;;;18.55;60.56
81816;BME280;71249;52.084;5.304;2023-07-08T03:35:01;101644.0;;;18.5;60.54
81816;BME280;71249;52.084;5.304;2023-07-08T03:38:19;101648.0;;;18.53;60.51
81816;BME280;71249;52.084;5.304;2023-07-08T03:39:55;101645.0;;;18.57;60.32
81816;BME280;71249;52.084;5.304;2023-07-08T03:41:30;101644.0;;;18.54;60.12
81816;BME280;71249;52.084;5.304;2023-07-08T03:44:43;101643.0;;;18.45;60.81
81816;BME280;71249;52.084;5.304;2023-07-08T03:46:20;101649.0;;;18.43;61.43
81816;BME280;71249;52.084;5.304;2023-07-08T03:47:57;101650.0;;;18.53;60.19
81816;BME280;71249;52.084;5.304;2023-07-08T03:49:33;101653.0;;;18.5;60.76
81816;BME280;71249;52.084;5.304;2023-07-08T03:52:57;101649.0;;;18.47;60.42
81816;BME280;71249;52.084;5.304;2023-07-08T03:54:34;101645.0;;;18.31;61.81
81816;BME280;71249;52.084;5.304;2023-07-08T03:56:11;101648.0;;;18.22;62.08
81816;BME280;71249;52.084;5.304;2023-07-08T03:59:24;101652.0;;;18.16;62.28
81816;BME280;71249;52.084;5.304;2023-07-08T04:01:00;101652.0;;;18.11;63.24
81816;BME280;71249;52.084;5.304;2023-07-08T04:02:36;101655.0;;;18.14;62.7
81816;BME280;71249;52.084;5.304;2023-07-08T04:04:14;101657.0;;;18.25;61.92
81816;BME280;71249;52.084;5.304;2023-07-08T04:07:27;101650.0;;;18.18;62.36
81816;BME280;71249;52.084;5.304;2023-07-08T04:09:03;101655.0;;;18.04;62.84
81816;BME280;71249;52.084;5.304;2023-07-08T04:10:40;101659.0;;;18.06;62.92
81816;BME280;71249;52.084;5.304;2023-07-08T04:13:54;101659.0;;;18.06;62.6
81816;BME280;71249;52.084;5.304;2023-07-08T04:15:30;101659.0;;;18.18;62.09
81816;BME280;71249;52.084;5.304;2023-07-08T04:17:07;101658.0;;;18.3;61.87
81816;BME280;71249;52.084;5.304;2023-07-08T04:20:19;101656.0;;;18.13;63.18
81816;BME280;71249;52.084;5.304;2023-07-08T04:21:55;101656.0;;;18.18;63.17
81816;BME280;71249;52.084;5.304;2023-07-08T04:23:31;101657.0;;;18.23;63.02
81816;BME280;71249;52.084;5.304;2023-07-08T04:25:08;101657.0;;;18.32;62.93
81816;BME280;71249;52.084;5.304;2023-07-08T04:28:23;101655.0;;;18.27;62.95
81816;BME280;71249;52.084;5.304;2023-07-08T04:30:00;101650.0;;;18.43;62.38
81816;BME280;71249;52.084;5.304;2023-07-08T04:31:36;101647.0;;;18.43;61.7
81816;BME280;71249;52.084;5.304;2023-07-08T04:36:26;101657.0;;;18.47;61.7
81816;BME280;71249;52.084;5.304;2023-07-08T04:38:02;101660.0;;;18.53;62.17
81816;BME280;71249;52.084;5.304;2023-07-08T04:41:14;101662.0;;;18.47;62.17
81816;BME280;71249;52.084;5.304;2023-07-08T04:42:51;101662.0;;;18.64;62.35
81816;BME280;71249;52.084;5.304;2023-07-08T04:44:27;101656.0;;;18.53;62.85
81816;BME280;71249;52.084;5.304;2023-07-08T04:46:04;101657.0;;;18.66;62.02
81816;BME280;71249;52.084;5.304;2023-07-08T04:49:35;101659.0;;;18.8;61.18
81816;BME280;71249;52.084;5.304;2023-07-08T04:51:11;101660.0;;;18.75;61.61
81816;BME280;71249;52.084;5.304;2023-07-08T04:52:47;101657.0;;;18.84;61.39
81816;BME280;71249;52.084;5.304;2023-07-08T04:54:24;101663.0;;;18.95;60.99
81816;BME280;71249;52.084;5.304;2023-07-08T04:57:36;101658.0;;;19.09;59.82
81816;BME280;71249;52.084;5.304;2023-07-08T04:59:14;101657.0;;;19.18;59.89
81816;BME280;71249;52.084;5.304;2023-07-08T05:00:51;101658.0;;;19.14;60.58
81816;BME280;71249;52.084;5.304;2023-07-08T05:04:05;101659.0;;;19.18;60.23
81816;BME280;71249;52.084;5.304;2023-07-08T05:05:42;101653.0;;;19.2;60.57
81816;BME280;71249;52.084;5.304;2023-07-08T05:07:18;101653.0;;;19.28;59.75
81816;BME280;71249;52.084;5.304;2023-07-08T05:10:30;101651.0;;;19.5;59.72
81816;BME280;71249;52.084;5.304;2023-07-08T05:12:07;101650.0;;;19.53;59.51
81816;BME280;71249;52.084;5.304;2023-07-08T05:13:43;101653.0;;;19.46;59.68
81816;BME280;71249;52.084;5.304;2023-07-08T05:15:19;101649.0;;;19.63;59.55
81816;BME280;71249;52.084;5.304;2023-07-08T05:18:33;101645.0;;;19.73;58.7
81816;BME280;71249;52.084;5.304;2023-07-08T05:20:11;101639.0;;;19.8;58.63
81816;BME280;71249;52.084;5.304;2023-07-08T05:21:49;101641.0;;;19.97;59.23
81816;BME280;71249;52.084;5.304;2023-07-08T05:25:02;101640.0;;;20.14;57.57
81816;BME280;71249;52.084;5.304;2023-07-08T05:26:38;101641.0;;;20.21;58.24
81816;BME280;71249;52.084;5.304;2023-07-08T05:28:15;101642.0;;;20.43;57.27
81816;BME280;71249;52.084;5.304;2023-07-08T05:31:27;101646.0;;;20.43;57.59
81816;BME280;71249;52.084;5.304;2023-07-08T05:33:03;101651.0;;;20.63;57.08
81816;BME280;71249;52.084;5.304;2023-07-08T05:34:39;101653.0;;;20.78;55.77
81816;BME280;71249;52.084;5.304;2023-07-08T05:36:15;101644.0;;;20.95;55.92
81816;BME280;71249;52.084;5.304;2023-07-08T05:39:29;101646.0;;;20.92;56.3
81816;BME280;71249;52.084;5.304;2023-07-08T05:41:06;101646.0;;;21.08;55.97
81816;BME280;71249;52.084;5.304;2023-07-08T05:42:42;101648.0;;;21.26;55.18
81816;BME280;71249;52.084;5.304;2023-07-08T05:45:57;101649.0;;;21.36;54.65
81816;BME280;71249;52.084;5.304;2023-07-08T05:47:34;101649.0;;;21.44;54.41
81816;BME280;71249;52.084;5.304;2023-07-08T05:49:10;101648.0;;;21.43;54.85
81816;BME280;71249;52.084;5.304;2023-07-08T05:52:23;101643.0;;;21.78;54.53
81816;BME280;71249;52.084;5.304;2023-07-08T05:53:59;101644.0;;;22.03;54.17
81816;BME280;71249;52.084;5.304;2023-07-08T05:55:35;101642.0;;;22.11;54.34
81816;BME280;71249;52.084;5.304;2023-07-08T05:57:11;101639.0;;;22.27;53.79
81816;BME280;71249;52.084;5.304;2023-07-08T06:00:25;101644.0;;;22.53;53.16
81816;BME280;71249;52.084;5.304;2023-07-08T06:02:01;101644.0;;;22.5;52.07
81816;BME280;71249;52.084;5.304;2023-07-08T06:03:38;101644.0;;;22.61;52.18
81816;BME280;71249;52.084;5.304;2023-07-08T06:06:51;101647.0;;;22.62;53.13
81816;BME280;71249;52.084;5.304;2023-07-08T06:08:27;101648.0;;;22.81;52.2
81816;BME280;71249;52.084;5.304;2023-07-08T06:10:04;101649.0;;;22.96;51.41
81816;BME280;71249;52.084;5.304;2023-07-08T06:13:17;101643.0;;;23.06;52.07
81816;BME280;71249;52.084;5.304;2023-07-08T06:14:52;101646.0;;;22.98;52.09
81816;BME280;71249;52.084;5.304;2023-07-08T06:16:28;101650.0;;;23.39;50.85
81816;BME280;71249;52.084;5.304;2023-07-08T06:18:05;101646.0;;;23.41;50.66
81816;BME280;71249;52.084;5.304;2023-07-08T06:21:17;101647.0;;;23.44;50.12
81816;BME280;71249;52.084;5.304;2023-07-08T06:22:53;101646.0;;;23.61;49.33
81816;BME280;71249;52.084;5.304;2023-07-08T06:24:29;101644.0;;;23.66;49.84
81816;BME280;71249;52.084;5.304;2023-07-08T06:27:42;101655.0;;;23.58;50.31
81816;BME280;71249;52.084;5.304;2023-07-08T06:29:18;101655.0;;;23.74;49.25
81816;BME280;71249;52.084;5.304;2023-07-08T06:30:54;101653.0;;;23.83;49.06
81816;BME280;71249;52.084;5.304;2023-07-08T06:34:06;101653.0;;;23.89;49.76
81816;BME280;71249;52.084;5.304;2023-07-08T06:35:43;101651.0;;;23.96;49.48
81816;BME280;71249;52.084;5.304;2023-07-08T06:37:19;101649.0;;;24.09;49.18
81816;BME280;71249;52.084;5.304;2023-07-08T06:40:32;101650.0;;;24.24;48.39
81816;BME280;71249;52.084;5.304;2023-07-08T06:42:08;101657.0;;;24.24;47.99
81816;BME280;71249;52.084;5.304;2023-07-08T06:43:44;101657.0;;;24.33;48.41
81816;BME280;71249;52.084;5.304;2023-07-08T06:45:20;101660.0;;;24.55;48.72
81816;BME280;71249;52.084;5.304;2023-07-08T06:48:32;101660.0;;;24.63;48.38
81816;BME280;71249;52.084;5.304;2023-07-08T06:50:09;101656.0;;;24.75;48.8
81816;BME280;71249;52.084;5.304;2023-07-08T06:51:45;101658.0;;;24.75;46.96
81816;BME280;71249;52.084;5.304;2023-07-08T06:54:58;101659.0;;;24.78;47.24
81816;BME280;71249;52.084;5.304;2023-07-08T06:56:34;101660.0;;;24.81;46.57
81816;BME280;71249;52.084;5.304;2023-07-08T06:58:10;101649.0;;;25.08;46.41
81816;BME280;71249;52.084;5.304;2023-07-08T07:01:23;101646.0;;;25.22;46.13
81816;BME280;71249;52.084;5.304;2023-07-08T07:02:58;101644.0;;;25.37;46.31
81816;BME280;71249;52.084;5.304;2023-07-08T07:04:35;101652.0;;;25.49;45.67
81816;BME280;71249;52.084;5.304;2023-07-08T07:06:11;101652.0;;;25.49;44.17
81816;BME280;71249;52.084;5.304;2023-07-08T07:09:23;101653.0;;;25.53;43.57
81816;BME280;71249;52.084;5.304;2023-07-08T07:10:59;101651.0;;;25.62;44.35
81816;BME280;71249;52.084;5.304;2023-07-08T07:12:35;101649.0;;;25.66;44.34
81816;BME280;71249;52.084;5.304;2023-07-08T07:15:48;101649.0;;;25.74;45.42
81816;BME280;71249;52.084;5.304;2023-07-08T07:17:25;101648.0;;;25.84;45.28
81816;BME280;71249;52.084;5.304;2023-07-08T07:19:02;101648.0;;;25.91;45.34
81816;BME280;71249;52.084;5.304;2023-07-08T07:22:22;101644.0;;;26.11;45.03
81816;BME280;71249;52.084;5.304;2023-07-08T07:23:59;101641.0;;;26.23;44.58
81816;BME280;71249;52.084;5.304;2023-07-08T07:25:35;101642.0;;;26.15;43.84
81816;BME280;71249;52.084;5.304;2023-07-08T07:27:11;101644.0;;;26.31;43.9
81816;BME280;71249;52.084;5.304;2023-07-08T07:30:24;101639.0;;;26.49;43.43
81816;BME280;71249;52.084;5.304;2023-07-08T07:32:00;101635.0;;;26.37;42.97
81816;BME280;71249;52.084;5.304;2023-07-08T07:33:36;101641.0;;;26.62;44.28
81816;BME280;71249;52.084;5.304;2023-07-08T07:36:50;101640.0;;;26.71;44.4
81816;BME280;71249;52.084;5.304;2023-07-08T07:38:26;101637.0;;;26.86;43.24
81816;BME280;71249;52.084;5.304;2023-07-08T07:40:03;101635.0;;;26.99;42.24
81816;BME280;71249;52.084;5.304;2023-07-08T07:43:16;101640.0;;;27.21;42.37
81816;BME280;71249;52.084;5.304;2023-07-08T07:44:52;101645.0;;;27.24;42.79
81816;BME280;71249;52.084;5.304;2023-07-08T07:46:28;101642.0;;;27.39;41.3
81816;BME280;71249;52.084;5.304;2023-07-08T07:48:04;101639.0;;;27.38;40.51
81816;BME280;71249;52.084;5.304;2023-07-08T07:51:16;101637.0;;;27.33;39.87
81816;BME280;71249;52.084;5.304;2023-07-08T07:52:52;101634.0;;;27.48;41.75
81816;BME280;71249;52.084;5.304;2023-07-08T07:54:29;101628.0;;;27.63;41.37
81816;BME280;71249;52.084;5.304;2023-07-08T07:57:42;101625.0;;;27.79;41.95
81816;BME280;71249;52.084;5.304;2023-07-08T07:59:19;101630.0;;;27.99;40.62
81816;BME280;71249;52.084;5.304;2023-07-08T08:00:55;101628.0;;;27.9;40.32
81816;BME280;71249;52.084;5.304;2023-07-08T08:04:09;101626.0;;;28.14;40.43
81816;BME280;71249;52.084;5.304;2023-07-08T08:05:46;101619.0;;;28.13;40.32
81816;BME280;71249;52.084;5.304;2023-07-08T08:07:23;101617.0;;;28.28;39.61
81816;BME280;71249;52.084;5.304;2023-07-08T08:08:59;101617.0;;;28.34;40.37
81816;BME280;71249;52.084;5.304;2023-07-08T08:12:12;101617.0;;;28.29;40.31
81816;BME280;71249;52.084;5.304;2023-07-08T08:13:48;101620.0;;;28.47;40.14
81816;BME280;71249;52.084;5.304;2023-07-08T08:15:24;101619.0;;;28.37;40.1
81816;BME280;71249;52.084;5.304;2023-07-08T08:18:37;101622.0;;;28.69;39.83
81816;BME280;71249;52.084;5.304;2023-07-08T08:20:13;101619.0;;;28.86;39.5
81816;BME280;71249;52.084;5.304;2023-07-08T08:21:49;101626.0;;;29.0;39.29
81816;BME280;71249;52.084;5.304;2023-07-08T08:25:01;101626.0;;;29.1;38.96
81816;BME280;71249;52.084;5.304;2023-07-08T08:26:37;101626.0;;;29.11;39.1
81816;BME280;71249;52.084;5.304;2023-07-08T08:28:13;101626.0;;;29.04;39.21
81816;BME280;71249;52.084;5.304;2023-07-08T08:29:50;101625.0;;;29.34;39.37
81816;BME280;71249;52.084;5.304;2023-07-08T08:33:02;101623.0;;;29.33;39.03
81816;BME280;71249;52.084;5.304;2023-07-08T08:34:38;101624.0;;;29.38;37.81
81816;BME280;71249;52.084;5.304;2023-07-08T08:36:14;101623.0;;;29.42;36.5
81816;BME280;71249;52.084;5.304;2023-07-08T08:39:27;101628.0;;;29.37;37.68
81816;BME280;71249;52.084;5.304;2023-07-08T08:41:04;101634.0;;;29.32;37.64
81816;BME280;71249;52.084;5.304;2023-07-08T08:42:51;101638.0;;;29.51;37.5
81816;BME280;71249;52.084;5.304;2023-07-08T08:44:32;101634.0;;;29.4;36.28
81816;BME280;71249;52.084;5.304;2023-07-08T08:48:10;101635.0;;;29.41;37.11
81816;BME280;71249;52.084;5.304;2023-07-08T08:51:33;101646.0;;;29.53;37.75
81816;BME280;71249;52.084;5.304;2023-07-08T08:53:12;101648.0;;;29.59;37.71
81816;BME280;71249;52.084;5.304;2023-07-08T08:56:28;101650.0;;;29.66;37.6
81816;BME280;71249;52.084;5.304;2023-07-08T08:58:14;101651.0;;;29.6;36.65
81816;BME280;71249;52.084;5.304;2023-07-08T08:59:59;101651.0;;;29.86;38.54
81816;BME280;71249;52.084;5.304;2023-07-08T09:01:36;101655.0;;;29.92;38.36
81816;BME280;71249;52.084;5.304;2023-07-08T09:04:56;101650.0;;;30.02;37.03
81816;BME280;71249;52.084;5.304;2023-07-08T09:06:40;101641.0;;;30.2;37.68
81816;BME280;71249;52.084;5.304;2023-07-08T09:08:21;101643.0;;;30.28;38.36
81816;BME280;71249;52.084;5.304;2023-07-08T09:10:09;101641.0;;;30.39;38.81
81816;BME280;71249;52.084;5.304;2023-07-08T09:11:53;101642.0;;;30.41;37.31
81816;BME280;71249;52.084;5.304;2023-07-08T09:15:13;101642.0;;;30.56;36.79
81816;BME280;71249;52.084;5.304;2023-07-08T09:16:57;101642.0;;;30.8;37.6
81816;BME280;71249;52.084;5.304;2023-07-08T09:18:45;101640.0;;;30.68;37.56
81816;BME280;71249;52.084;5.304;2023-07-08T09:22:15;101634.0;;;31.06;37.14
81816;BME280;71249;52.084;5.304;2023-07-08T09:27:20;101632.0;;;31.02;34.49
81816;BME280;71249;52.084;5.304;2023-07-08T09:28:55;101633.0;;;31.13;35.86
81816;BME280;71249;52.084;5.304;2023-07-08T09:30:32;101633.0;;;31.13;35.31
81816;BME280;71249;52.084;5.304;2023-07-08T09:34:06;101631.0;;;31.11;33.49
81816;BME280;71249;52.084;5.304;2023-07-08T09:35:44;101635.0;;;31.16;35.14
81816;BME280;71249;52.084;5.304;2023-07-08T09:37:26;101641.0;;;31.3;35.69
81816;BME280;71249;52.084;5.304;2023-07-08T09:39:02;101643.0;;;31.37;34.29
81816;BME280;71249;52.084;5.304;2023-07-08T09:42:15;101638.0;;;31.43;34.46
81816;BME280;71249;52.084;5.304;2023-07-08T09:44:02;101639.0;;;31.52;35.61
81816;BME280;71249;52.084;5.304;2023-07-08T09:45:42;101636.0;;;31.44;31.93
81816;BME280;71249;52.084;5.304;2023-07-08T09:47:23;101630.0;;;31.54;34.03
81816;BME280;71249;52.084;5.304;2023-07-08T09:50:52;101630.0;;;31.53;33.28
81816;BME280;71249;52.084;5.304;2023-07-08T09:52:30;101634.0;;;31.62;33.32
81816;BME280;71249;52.084;5.304;2023-07-08T09:54:07;101634.0;;;31.66;34.01
81816;BME280;71249;52.084;5.304;2023-07-08T09:55:44;101636.0;;;31.85;34.85
81816;BME280;71249;52.084;5.304;2023-07-08T09:59:04;101636.0;;;32.03;33.83
81816;BME280;71249;52.084;5.304;2023-07-08T10:00:41;101640.0;;;32.06;33.37
81816;BME280;71249;52.084;5.304;2023-07-08T10:02:29;101643.0;;;32.21;33.85
81816;BME280;71249;52.084;5.304;2023-07-08T10:04:05;101646.0;;;32.19;32.74
81816;BME280;71249;52.084;5.304;2023-07-08T10:07:22;101644.0;;;32.25;32.03
81816;BME280;71249;52.084;5.304;2023-07-08T10:09:02;101640.0;;;32.25;33.71
81816;BME280;71249;52.084;5.304;2023-07-08T10:10:40;101642.0;;;32.35;33.97
81816;BME280;71249;52.084;5.304;2023-07-08T10:13:57;101641.0;;;32.17;32.1
81816;BME280;71249;52.084;5.304;2023-07-08T10:15:38;101635.0;;;32.14;31.88
81816;BME280;71249;52.084;5.304;2023-07-08T10:17:20;101637.0;;;32.46;33.97
81816;BME280;71249;52.084;5.304;2023-07-08T10:18:58;101628.0;;;32.4;34.43
81816;BME280;71249;52.084;5.304;2023-07-08T10:22:33;101630.0;;;32.33;32.89
81816;BME280;71249;52.084;5.304;2023-07-08T10:24:24;101625.0;;;32.58;34.24
81816;BME280;71249;52.084;5.304;2023-07-08T10:26:11;101621.0;;;32.65;34.04
81816;BME280;71249;52.084;5.304;2023-07-08T10:28:00;101624.0;;;32.78;34.12
81816;BME280;71249;52.084;5.304;2023-07-08T10:29:46;101619.0;;;32.78;33.64
81816;BME280;71249;52.084;5.304;2023-07-08T10:31:31;101618.0;;;32.72;33.21
81816;BME280;71249;52.084;5.304;2023-07-08T10:33:31;101621.0;;;32.85;33.72
81816;BME280;71249;52.084;5.304;2023-07-08T10:35:24;101627.0;;;32.85;32.22
81816;BME280;71249;52.084;5.304;2023-07-08T10:39:05;101628.0;;;32.85;33.78
81816;BME280;71249;52.084;5.304;2023-07-08T10:41:00;101632.0;;;32.9;33.21
81816;BME280;71249;52.084;5.304;2023-07-08T10:42:53;101626.0;;;33.17;34.08
81816;BME280;71249;52.084;5.304;2023-07-08T10:44:44;101623.0;;;33.11;33.86
81816;BME280;71249;52.084;5.304;2023-07-08T10:46:36;101623.0;;;33.14;33.39
81816;BME280;71249;52.084;5.304;2023-07-08T10:48:30;101616.0;;;33.18;33.44
81816;BME280;71249;52.084;5.304;2023-07-08T10:50:27;101615.0;;;33.35;33.61
81816;BME280;71249;52.084;5.304;2023-07-08T10:52:27;101613.0;;;33.49;33.61
81816;BME280;71249;52.084;5.304;2023-07-08T10:54:34;101609.0;;;33.55;33.58
81816;BME280;71249;52.084;5.304;2023-07-08T10:56:39;101609.0;;;33.64;33.17
81816;BME280;71249;52.084;5.304;2023-07-08T11:00:24;101615.0;;;33.67;33.47
81816;BME280;71249;52.084;5.304;2023-07-08T11:02:19;101606.0;;;33.6;32.17
81816;BME280;71249;52.084;5.304;2023-07-08T11:05:06;101616.0;;;33.74;31.77
81816;BME280;71249;52.084;5.304;2023-07-08T11:06:52;101614.0;;;33.85;32.93
81816;BME280;71249;52.084;5.304;2023-07-08T11:10:21;101611.0;;;33.9;33.11
81816;BME280;71249;52.084;5.304;2023-07-08T11:12:04;101618.0;;;33.96;32.33
81816;BME280;71249;52.084;5.304;2023-07-08T11:13:50;101611.0;;;34.1;31.88
81816;BME280;71249;52.084;5.304;2023-07-08T11:15:36;101610.0;;;34.17;31.91
81816;BME280;71249;52.084;5.304;2023-07-08T11:17:20;101608.0;;;34.24;32.24